Time;durP1;ratioP1;P1;durP2;ratioP2;P2;SDS_P1;SDS_P2;PMS_P1;PMS_P2;Temp;Humidity;BMP_temperature;BMP_pressure;BME280_temperature;BME280_humidity;BME280_pressure;Samples;Min_cycle;Max_cycle;Signal;HPM_P1;HPM_P2
2021/11/21 00:01:11;;;;;;;8.67;6.33;;;-0.20;99.90;;;;;;4994638;28;20554;-76
2021/11/21 00:03:37;;;;;;;9.77;7.47;;;-0.20;99.90;;;;;;4994626;28;20610;-76
2021/11/21 07:36:24;;;;;;;5.30;3.17;;;3.00;99.90;;;;;;5132910;27;20273;-76
2021/11/21 07:38:50;;;;;;;5.03;3.07;;;3.20;99.90;;;;;;5113700;28;20421;-76
2021/11/21 07:41:16;;;;;;;6.40;4.07;;;3.40;99.90;;;;;;5131669;28;20195;-76
2021/11/21 07:43:43;;;;;;;5.83;4.07;;;3.80;99.90;;;;;;5132674;27;20246;-78
2021/11/21 07:46:09;;;;;;;5.17;3.80;;;3.80;99.90;;;;;;5132112;27;20205;-76
2021/11/21 07:48:35;;;;;;;8.30;3.63;;;4.00;99.90;;;;;;5131815;27;20812;-77
2021/11/21 07:51:02;;;;;;;4.73;3.40;;;4.10;99.90;;;;;;5131757;27;20758;-77
2021/11/21 07:53:28;;;;;;;7.30;4.60;;;4.30;99.90;;;;;;5132141;27;20798;-76
2021/11/21 07:55:54;;;;;;;10.27;5.77;;;4.50;99.90;;;;;;5130706;28;20449;-77
2021/11/21 07:58:20;;;;;;;8.03;5.20;;;5.00;99.90;;;;;;5131653;27;20167;-77
2021/11/21 08:00:47;;;;;;;6.53;4.33;;;5.90;99.90;;;;;;5131462;27;20545;-77
2021/11/21 08:03:13;;;;;;;5.17;4.13;;;6.60;99.90;;;;;;5130103;28;20206;-77
2021/11/21 08:05:39;;;;;;;5.37;3.43;;;7.30;99.90;;;;;;5131763;27;20405;-77
2021/11/21 08:08:05;;;;;;;3.87;2.90;;;7.90;99.90;;;;;;5130306;28;20636;-79
2021/11/21 08:10:32;;;;;;;3.43;2.93;;;8.50;99.90;;;;;;5131200;27;20766;-77
2021/11/21 08:12:58;;;;;;;4.77;3.20;;;9.20;99.90;;;;;;5129988;28;20440;-77
2021/11/21 08:15:23;;;;;;;3.77;2.93;;;9.70;99.90;;;;;;5131196;27;20485;-77
2021/11/21 08:17:49;;;;;;;4.27;3.23;;;9.90;99.90;;;;;;5130232;28;20187;-77
2021/11/21 08:20:15;;;;;;;8.13;4.53;;;9.80;99.90;;;;;;5131142;27;20536;-77
2021/11/21 08:22:41;;;;;;;5.53;3.60;;;9.80;99.90;;;;;;5130247;28;20195;-77
2021/11/21 08:25:08;;;;;;;4.90;2.97;;;10.10;99.90;;;;;;5129882;28;20175;-77
2021/11/21 08:27:34;;;;;;;3.60;3.10;;;10.30;99.90;;;;;;5131593;27;20198;-77
2021/11/21 08:29:59;;;;;;;3.13;2.40;;;10.40;99.90;;;;;;5130313;28;20209;-78
2021/11/21 08:32:25;;;;;;;5.40;2.40;;;10.60;99.90;;;;;;5130376;28;20229;-78
2021/11/21 08:34:51;;;;;;;2.60;2.37;;;10.90;99.90;;;;;;5130739;28;20259;-78
2021/11/21 08:37:17;;;;;;;2.53;2.17;;;11.20;99.90;;;;;;5130951;28;20175;-77
2021/11/21 08:39:42;;;;;;;3.00;2.03;;;11.40;99.90;;;;;;5131498;27;20278;-77
2021/11/21 08:42:08;;;;;;;5.60;2.60;;;11.70;99.90;;;;;;5129861;28;20186;-78
2021/11/21 08:44:35;;;;;;;3.40;1.93;;;11.90;99.90;;;;;;5130012;28;20235;-77
2021/11/21 08:47:01;;;;;;;2.27;1.57;;;12.00;99.90;;;;;;5122090;27;20224;-78
2021/11/21 08:49:27;;;;;;;2.80;1.40;;;12.00;99.90;;;;;;5117680;28;20171;-77
2021/11/21 08:51:53;;;;;;;3.27;2.70;;;12.10;99.90;;;;;;5116419;28;20195;-78
2021/11/21 08:54:19;;;;;;;3.73;2.03;;;12.30;99.90;;;;;;5117322;28;20279;-77
2021/11/21 08:56:46;;;;;;;4.30;2.70;;;12.40;99.90;;;;;;5116185;28;20186;-78
2021/11/21 08:59:13;;;;;;;4.20;3.20;;;12.80;99.90;;;;;;5117485;28;20255;-77
2021/11/21 09:01:39;;;;;;;4.27;2.73;;;13.10;99.90;;;;;;5117170;28;20192;-77
2021/11/21 09:04:05;;;;;;;2.53;2.23;;;13.20;99.90;;;;;;5117242;28;20170;-78
2021/11/21 09:06:32;;;;;;;2.90;1.80;;;13.20;99.90;;;;;;5116110;28;20234;-77
2021/11/21 09:08:57;;;;;;;4.53;2.77;;;12.90;99.90;;;;;;5117375;28;20205;-79
2021/11/21 09:11:24;;;;;;;5.50;4.10;;;12.80;99.90;;;;;;5115720;28;20229;-78
2021/11/21 09:13:50;;;;;;;5.63;5.00;;;12.80;99.90;;;;;;5115528;28;20177;-78
2021/11/21 09:16:15;;;;;;;2.10;1.90;;;13.00;99.90;;;;;;5117036;28;20177;-78
2021/11/21 09:18:41;;;;;;;2.43;2.00;;;13.10;99.90;;;;;;5117797;28;20626;-78
2021/11/21 09:21:07;;;;;;;3.27;2.10;;;13.50;99.90;;;;;;5117113;27;20184;-78
2021/11/21 09:23:33;;;;;;;3.17;2.30;;;13.50;99.90;;;;;;5116894;28;20202;-77
2021/11/21 09:25:59;;;;;;;2.97;2.00;;;13.70;99.90;;;;;;5117090;28;20244;-78
2021/11/21 09:28:25;;;;;;;2.57;1.83;;;13.90;99.90;;;;;;5116950;28;20164;-78
2021/11/21 09:30:55;;;;;;;2.67;1.67;;;14.00;99.90;;;;;;5115335;28;20619;-77
2021/11/21 09:33:22;;;;;;;2.33;1.97;;;14.00;99.60;;;;;;5116968;28;20173;-78
2021/11/21 09:35:47;;;;;;;2.30;1.63;;;13.80;99.30;;;;;;5115944;28;20194;-78
2021/11/21 09:38:14;;;;;;;2.67;1.77;;;13.70;98.70;;;;;;5115936;28;20710;-78
2021/11/21 09:40:40;;;;;;;2.90;1.80;;;13.60;99.60;;;;;;5117149;27;20174;-78
2021/11/21 09:43:06;;;;;;;3.03;2.20;;;13.50;98.10;;;;;;5116680;28;20243;-78
2021/11/21 09:45:32;;;;;;;2.10;1.87;;;13.50;98.70;;;;;;5117095;28;20203;-79
2021/11/21 09:48:00;;;;;;;2.80;1.70;;;13.60;98.30;;;;;;5118380;28;20616;-78
2021/11/21 09:50:29;;;;;;;1.93;1.73;;;13.90;97.40;;;;;;5118283;28;20260;-79
2021/11/21 09:52:55;;;;;;;2.73;1.60;;;14.10;98.50;;;;;;5116670;28;20255;-79
2021/11/21 09:55:21;;;;;;;4.77;1.70;;;13.90;97.00;;;;;;5116270;28;20219;-78
2021/11/21 09:57:48;;;;;;;2.90;1.70;;;13.60;96.70;;;;;;5116776;28;20175;-78
2021/11/21 10:00:16;;;;;;;3.23;1.90;;;13.70;97.10;;;;;;5117402;28;20659;-78
2021/11/21 10:02:45;;;;;;;2.23;1.90;;;13.80;95.80;;;;;;5115574;28;20199;-78
2021/11/21 10:05:27;;;;;;;2.50;2.30;;;13.50;96.60;;;;;;5116183;28;20199;-79
2021/11/21 10:08:06;;;;;;;1.63;1.50;;;13.60;97.10;;;;;;5117586;28;20155;-78
2021/11/21 10:10:48;;;;;;;1.97;1.73;;;14.00;96.90;;;;;;5117388;28;20166;-79
2021/11/21 10:13:33;;;;;;;5.97;1.63;;;14.20;96.00;;;;;;5117442;28;20193;-78
2021/11/21 10:16:19;;;;;;;2.20;2.00;;;14.80;95.50;;;;;;5117267;28;20172;-77
2021/11/21 10:18:58;;;;;;;3.20;1.80;;;14.70;94.30;;;;;;5116998;28;20160;-79
2021/11/21 10:21:28;;;;;;;4.67;1.60;;;14.80;95.30;;;;;;5115903;28;20210;-79
2021/11/21 10:24:10;;;;;;;3.00;1.43;;;15.00;95.00;;;;;;5117149;28;20164;-78
2021/11/21 10:26:36;;;;;;;2.27;1.60;;;15.30;93.70;;;;;;5115424;28;20660;-78
2021/11/21 10:29:02;;;;;;;1.70;1.50;;;15.40;96.10;;;;;;5116039;28;20259;-78
2021/11/21 10:31:31;;;;;;;1.50;1.40;;;15.50;93.30;;;;;;5116670;28;20245;-78
2021/11/21 10:33:58;;;;;;;2.40;1.60;;;15.50;92.30;;;;;;5096627;28;20188;-78
2021/11/21 10:36:29;;;;;;;5.33;1.67;;;15.40;92.30;;;;;;5104041;28;20177;-78
2021/11/21 10:39:08;;;;;;;3.60;1.90;;;15.10;92.40;;;;;;5114978;28;20176;-78
2021/11/21 10:41:42;;;;;;;3.70;1.73;;;15.40;93.40;;;;;;5114622;28;20191;-78
2021/11/21 10:44:09;;;;;;;1.70;1.30;;;15.50;91.50;;;;;;5114658;28;20167;-78
2021/11/21 10:46:58;;;;;;;2.07;1.50;;;15.60;91.50;;;;;;5095487;28;20172;-78
2021/11/21 10:49:33;;;;;;;2.50;1.70;;;15.60;91.30;;;;;;5085698;28;20637;-78
2021/11/21 10:51:58;;;;;;;1.93;1.83;;;15.90;91.80;;;;;;5109213;28;20188;-78
2021/11/21 10:54:25;;;;;;;3.13;1.80;;;16.10;91.50;;;;;;5117368;28;20226;-79
2021/11/21 10:56:53;;;;;;;2.03;1.80;;;16.40;91.50;;;;;;5118167;28;20630;-79
2021/11/21 10:59:50;;;;;;;2.77;1.50;;;16.50;88.50;;;;;;5125600;28;20266;-78
2021/11/21 11:02:43;;;;;;;1.50;1.37;;;16.80;89.40;;;;;;5114271;28;20255;-79
2021/11/21 11:05:27;;;;;;;1.60;1.50;;;16.50;88.00;;;;;;5120573;28;20293;-78
2021/11/21 11:07:57;;;;;;;1.83;1.40;;;16.40;88.40;;;;;;5116911;28;20488;-79
2021/11/21 11:10:28;;;;;;;1.90;1.40;;;16.60;89.30;;;;;;5116614;28;20281;-79
2021/11/21 11:12:58;;;;;;;2.70;1.60;;;16.70;88.00;;;;;;5116640;28;20192;-80
2021/11/21 11:15:25;;;;;;;2.07;1.50;;;17.00;86.40;;;;;;5117056;28;20168;-78
2021/11/21 11:17:52;;;;;;;3.23;1.50;;;16.40;86.50;;;;;;5115594;28;20552;-78
2021/11/21 11:20:21;;;;;;;1.70;1.50;;;16.30;86.00;;;;;;5115255;28;20650;-78
2021/11/21 11:22:48;;;;;;;2.03;1.60;;;16.10;85.10;;;;;;5116747;28;20707;-78
2021/11/21 11:25:24;;;;;;;2.20;1.70;;;16.20;89.20;;;;;;5116755;28;20197;-78
2021/11/21 11:27:55;;;;;;;2.63;1.97;;;16.20;85.20;;;;;;5116843;28;20228;-78
2021/11/21 11:30:29;;;;;;;2.10;1.77;;;16.00;87.60;;;;;;5116669;28;20676;-78
2021/11/21 11:33:08;;;;;;;2.70;2.00;;;15.70;85.40;;;;;;5116001;28;20192;-79
2021/11/21 11:35:36;;;;;;;3.57;1.90;;;16.20;88.60;;;;;;5115266;28;20657;-79
2021/11/21 11:38:15;;;;;;;3.70;3.40;;;16.90;88.50;;;;;;5116385;28;20201;-79
2021/11/21 11:40:52;;;;;;;2.23;1.90;;;17.00;84.60;;;;;;5116807;28;20613;-79
2021/11/21 11:43:23;;;;;;;2.60;2.03;;;17.00;84.10;;;;;;5116765;28;20195;-78
2021/11/21 11:45:55;;;;;;;4.07;2.27;;;17.20;83.10;;;;;;5116714;28;20665;-78
2021/11/21 11:48:30;;;;;;;2.53;2.00;;;17.10;84.10;;;;;;5116748;28;20546;-78
2021/11/21 11:50:58;;;;;;;2.00;1.60;;;17.00;84.40;;;;;;5115168;28;20270;-78
2021/11/21 11:53:45;;;;;;;2.17;2.00;;;16.80;84.30;;;;;;5116659;28;20630;-78
2021/11/21 11:56:25;;;;;;;4.73;2.50;;;16.70;86.70;;;;;;5116810;28;20167;-79
2021/11/21 11:59:30;;;;;;;3.60;3.10;;;16.70;85.00;;;;;;5116568;28;20166;-78
2021/11/21 12:01:58;;;;;;;3.60;2.90;;;16.90;86.10;;;;;;5053495;28;20211;-78
2021/11/21 12:04:24;;;;;;;4.70;4.07;;;16.30;85.60;;;;;;5053776;28;20243;-78
2021/11/21 12:06:49;;;;;;;3.30;2.70;;;15.90;87.40;;;;;;5084530;28;20187;-78
2021/11/21 12:09:28;;;;;;;3.20;1.70;;;16.30;86.10;;;;;;5114784;28;20226;-78
2021/11/21 12:12:00;;;;;;;3.17;1.83;;;16.20;85.60;;;;;;5116125;28;20195;-79
2021/11/21 12:14:31;;;;;;;4.00;1.83;;;15.80;85.80;;;;;;5114922;28;20638;-78
2021/11/21 12:16:58;;;;;;;3.07;1.90;;;15.30;84.60;;;;;;5114737;28;20183;-78
2021/11/21 12:19:42;;;;;;;4.27;1.80;;;14.70;87.30;;;;;;5115887;28;20226;-78
2021/11/21 12:22:27;;;;;;;2.23;1.77;;;14.10;89.40;;;;;;5116792;28;20223;-78
2021/11/21 12:24:54;;;;;;;3.07;2.27;;;13.60;90.50;;;;;;5119720;28;20195;-78
2021/11/21 12:27:25;;;;;;;4.33;2.00;;;13.20;91.00;;;;;;5118076;28;20641;-78
2021/11/21 12:30:22;;;;;;;3.27;2.30;;;13.10;92.10;;;;;;5119454;28;20151;-78
2021/11/21 12:32:57;;;;;;;2.57;1.80;;;12.90;92.60;;;;;;5118975;28;20540;-79
2021/11/21 12:35:34;;;;;;;3.10;2.27;;;12.80;93.50;;;;;;5117266;28;20187;-78
2021/11/21 12:38:05;;;;;;;3.77;2.20;;;12.60;92.80;;;;;;5117124;28;20266;-78
2021/11/21 12:40:45;;;;;;;5.07;2.90;;;12.50;93.60;;;;;;5118034;28;20179;-78
2021/11/21 12:43:14;;;;;;;5.00;3.00;;;12.30;93.70;;;;;;5118420;28;20554;-79
2021/11/21 12:46:07;;;;;;;4.37;2.50;;;12.10;94.60;;;;;;5118301;28;20226;-79
2021/11/21 12:48:33;;;;;;;4.90;2.10;;;12.10;94.50;;;;;;5114921;28;20179;-79
2021/11/21 12:51:01;;;;;;;2.87;1.77;;;11.80;94.50;;;;;;5119363;28;20247;-79
2021/11/21 12:53:32;;;;;;;2.40;2.03;;;11.80;94.60;;;;;;5118401;28;20178;-78
2021/11/21 12:56:02;;;;;;;2.20;2.00;;;11.60;95.10;;;;;;5119191;28;20171;-79
2021/11/21 12:58:33;;;;;;;6.30;3.97;;;11.60;95.40;;;;;;5118244;28;20199;-79
2021/11/21 13:01:01;;;;;;;9.43;2.70;;;11.40;96.40;;;;;;5117038;28;20172;-79
2021/11/21 13:03:28;;;;;;;3.10;2.27;;;11.40;96.80;;;;;;5119892;28;20254;-77
2021/11/21 13:06:03;;;;;;;2.57;2.30;;;11.40;96.10;;;;;;5119484;28;20203;-79
2021/11/21 13:08:32;;;;;;;3.27;2.30;;;11.30;96.20;;;;;;5118662;28;20166;-77
2021/11/21 13:11:00;;;;;;;3.07;2.37;;;11.10;96.80;;;;;;5115094;28;20175;-77
2021/11/21 13:13:32;;;;;;;3.20;2.37;;;11.10;97.10;;;;;;5118276;28;20259;-77
2021/11/21 13:15:59;;;;;;;3.30;3.00;;;11.00;98.10;;;;;;5117249;28;20175;-77
2021/11/21 13:18:32;;;;;;;5.90;3.67;;;10.40;99.90;;;;;;5116615;28;20171;-77
2021/11/21 13:21:09;;;;;;;4.47;3.60;;;10.00;99.90;;;;;;5117749;28;20550;-77
2021/11/21 13:23:37;;;;;;;5.47;3.40;;;10.00;99.90;;;;;;5117142;28;20790;-77
2021/11/21 13:26:09;;;;;;;4.77;3.90;;;9.80;99.90;;;;;;5117872;28;20198;-78
2021/11/21 13:28:48;;;;;;;4.70;3.60;;;9.70;99.90;;;;;;5117657;28;20152;-77
2021/11/21 13:31:21;;;;;;;8.50;3.43;;;9.30;99.90;;;;;;5114839;28;20239;-77
2021/11/21 13:33:53;;;;;;;5.23;4.00;;;9.30;99.90;;;;;;5116170;28;20174;-76
2021/11/21 13:36:37;;;;;;;4.90;4.07;;;9.20;99.90;;;;;;5114856;28;20243;-77
2021/11/21 13:39:18;;;;;;;8.20;4.23;;;9.20;99.90;;;;;;5114899;28;20665;-77
2021/11/21 13:41:54;;;;;;;5.50;4.10;;;9.30;99.90;;;;;;5114493;28;20199;-77
2021/11/21 13:44:23;;;;;;;6.37;4.33;;;9.30;99.90;;;;;;5116337;28;20569;-77
2021/11/21 13:46:50;;;;;;;5.93;4.60;;;9.30;99.90;;;;;;5115580;28;20510;-76
2021/11/21 13:49:26;;;;;;;7.63;4.80;;;9.00;99.90;;;;;;5115309;28;20176;-77
2021/11/21 13:52:07;;;;;;;8.70;5.67;;;8.80;99.90;;;;;;5115797;28;20182;-76
2021/11/21 13:54:42;;;;;;;7.73;5.30;;;8.70;99.90;;;;;;5115163;28;20176;-77
2021/11/21 13:57:23;;;;;;;8.87;6.07;;;8.60;99.90;;;;;;5116466;28;20642;-77
2021/11/21 13:59:50;;;;;;;6.80;5.37;;;8.60;99.90;;;;;;5115324;28;20165;-78
2021/11/21 14:02:26;;;;;;;9.03;5.77;;;8.60;99.90;;;;;;5116028;27;20203;-77
2021/11/21 14:04:57;;;;;;;7.20;5.60;;;8.50;99.90;;;;;;5115616;28;20199;-76
2021/11/21 14:07:22;;;;;;;9.23;6.27;;;8.40;99.90;;;;;;5115619;28;20188;-77
2021/11/21 14:10:06;;;;;;;8.27;6.53;;;8.30;99.90;;;;;;5115785;28;20164;-77
2021/11/21 14:12:39;;;;;;;8.37;6.50;;;8.10;99.90;;;;;;5116025;28;20241;-77
2021/11/21 14:15:05;;;;;;;8.60;6.93;;;8.00;99.90;;;;;;5115455;28;20168;-77
2021/11/21 14:17:30;;;;;;;10.23;7.60;;;8.00;99.90;;;;;;5115919;27;20171;-77
2021/11/21 14:19:56;;;;;;;11.73;7.63;;;7.90;99.90;;;;;;5116202;28;20658;-77
2021/11/21 14:22:28;;;;;;;9.43;7.03;;;7.80;99.90;;;;;;5115371;27;20188;-77
2021/11/21 14:24:57;;;;;;;8.67;7.03;;;7.60;99.90;;;;;;5113992;28;20243;-77
2021/11/21 14:27:26;;;;;;;9.33;7.63;;;7.40;99.90;;;;;;5115747;28;20169;-79
2021/11/21 14:30:08;;;;;;;9.47;6.97;;;7.30;99.90;;;;;;5116072;28;20175;-80
2021/11/21 14:32:38;;;;;;;8.80;7.07;;;7.10;99.90;;;;;;5115007;28;20724;-78
2021/11/21 14:35:18;;;;;;;9.63;7.13;;;7.10;99.90;;;;;;5114012;28;20220;-79
2021/11/21 14:37:44;;;;;;;11.10;7.07;;;7.00;99.90;;;;;;5113527;28;20175;-76
2021/11/21 14:40:10;;;;;;;14.63;7.60;;;7.00;99.90;;;;;;5115432;28;20171;-79
2021/11/21 14:42:36;;;;;;;11.17;8.07;;;7.00;99.90;;;;;;5116430;28;20195;-79
2021/11/21 14:45:02;;;;;;;9.80;7.77;;;6.90;99.90;;;;;;5116663;28;20201;-79
2021/11/21 14:47:28;;;;;;;11.63;8.90;;;6.90;99.90;;;;;;5117970;28;20169;-79
2021/11/21 14:49:54;;;;;;;14.33;10.83;;;6.80;99.90;;;;;;5115855;28;20199;-79
2021/11/21 14:52:21;;;;;;;112.33;66.17;;;6.80;99.90;;;;;;5113520;28;20196;-76
2021/11/21 14:54:50;;;;;;;23.50;17.07;;;6.80;99.90;;;;;;5113821;27;20171;-79
2021/11/21 14:57:19;;;;;;;13.97;10.57;;;6.70;99.90;;;;;;5114446;28;20183;-79
2021/11/21 14:59:45;;;;;;;13.97;10.50;;;6.60;99.90;;;;;;5116225;28;20175;-79
2021/11/21 15:02:12;;;;;;;10.57;8.03;;;6.40;99.90;;;;;;5115338;28;20276;-79
2021/11/21 15:04:38;;;;;;;17.20;9.30;;;6.40;99.90;;;;;;5114807;28;20543;-76
2021/11/21 15:07:05;;;;;;;16.10;10.53;;;6.30;99.90;;;;;;5116141;28;20171;-79
2021/11/21 15:09:30;;;;;;;12.77;9.97;;;6.10;99.90;;;;;;5116706;28;20898;-77
2021/11/21 15:11:56;;;;;;;14.07;10.27;;;5.90;99.90;;;;;;5114171;28;20475;-77
2021/11/21 15:14:23;;;;;;;16.07;10.70;;;5.80;99.90;;;;;;5114977;28;20171;-76
2021/11/21 15:16:50;;;;;;;17.17;12.30;;;5.60;99.90;;;;;;5113302;28;20203;-76
2021/11/21 15:19:17;;;;;;;15.40;11.33;;;5.50;99.90;;;;;;5114420;28;20271;-79
2021/11/21 15:21:42;;;;;;;12.00;9.80;;;5.40;99.90;;;;;;5114634;28;20195;-79
2021/11/21 15:24:08;;;;;;;18.60;11.07;;;5.40;99.90;;;;;;5114645;28;20733;-76
2021/11/21 15:26:34;;;;;;;15.47;11.00;;;5.30;99.90;;;;;;5114327;28;20206;-76
2021/11/21 15:29:00;;;;;;;17.00;11.17;;;5.30;99.90;;;;;;5113063;28;20176;-77
2021/11/21 15:31:26;;;;;;;15.53;10.80;;;5.30;99.90;;;;;;5115917;28;20273;-79
2021/11/21 15:33:52;;;;;;;14.03;10.33;;;5.20;99.90;;;;;;5116762;28;20172;-79
2021/11/21 15:36:19;;;;;;;15.77;10.93;;;5.20;99.90;;;;;;5118386;28;20266;-79
2021/11/21 15:38:45;;;;;;;15.10;10.70;;;5.20;99.90;;;;;;5117630;28;20421;-76
2021/11/21 15:41:12;;;;;;;17.37;12.20;;;4.80;99.90;;;;;;5112164;28;20444;-76
2021/11/21 15:43:38;;;;;;;16.03;11.77;;;4.80;99.90;;;;;;5116174;28;20421;-79
2021/11/21 15:46:05;;;;;;;17.37;12.20;;;4.70;99.90;;;;;;5117310;28;20945;-78
2021/11/21 15:48:32;;;;;;;19.40;12.10;;;4.70;99.90;;;;;;5117766;28;20406;-79
2021/11/21 15:50:57;;;;;;;17.47;12.00;;;4.40;99.90;;;;;;5117039;28;20507;-79
2021/11/21 15:53:23;;;;;;;18.20;11.80;;;4.40;99.90;;;;;;5115274;28;20182;-78
2021/11/21 15:55:49;;;;;;;16.30;11.37;;;4.30;99.90;;;;;;5114605;28;20254;-78
2021/11/21 15:58:15;;;;;;;18.53;12.43;;;4.30;99.90;;;;;;5117314;28;20183;-78
2021/11/21 16:00:41;;;;;;;16.27;11.50;;;4.40;99.90;;;;;;5117091;28;20179;-76
2021/11/21 16:03:07;;;;;;;17.87;12.30;;;4.40;99.90;;;;;;5117272;28;20218;-78
2021/11/21 16:05:33;;;;;;;17.17;12.33;;;4.40;99.90;;;;;;5118392;28;20633;-77
2021/11/21 16:08:01;;;;;;;18.23;13.10;;;4.50;99.90;;;;;;5116620;28;20182;-77
2021/11/21 16:10:28;;;;;;;17.47;12.07;;;4.50;99.90;;;;;;5117830;28;20171;-77
2021/11/21 16:12:54;;;;;;;21.07;13.60;;;4.30;99.90;;;;;;5117898;28;20192;-77
2021/11/21 16:15:20;;;;;;;19.23;13.57;;;4.20;99.90;;;;;;5116730;28;20180;-77
2021/11/21 16:17:48;;;;;;;26.37;15.03;;;4.20;99.90;;;;;;5118361;28;20184;-77
2021/11/21 16:20:14;;;;;;;20.77;14.70;;;4.20;99.90;;;;;;5117864;28;20605;-77
2021/11/21 16:22:40;;;;;;;20.10;14.03;;;4.10;99.90;;;;;;5116419;28;20199;-77
2021/11/21 16:25:07;;;;;;;23.80;16.87;;;4.10;99.90;;;;;;5117829;28;20210;-77
2021/11/21 16:27:34;;;;;;;20.90;14.67;;;4.00;99.90;;;;;;5116403;28;20176;-77
2021/11/21 16:30:04;;;;;;;21.47;13.70;;;4.00;99.90;;;;;;5116158;28;20195;-79
2021/11/21 16:32:30;;;;;;;25.50;15.57;;;4.00;99.90;;;;;;5117498;28;20195;-77
2021/11/21 16:34:57;;;;;;;25.83;17.43;;;4.00;99.90;;;;;;5117375;28;20200;-77
2021/11/21 16:37:23;;;;;;;26.70;15.00;;;4.00;99.90;;;;;;5117483;28;20176;-77
2021/11/21 16:39:49;;;;;;;23.63;13.50;;;3.90;99.90;;;;;;5117524;28;20176;-77
2021/11/21 16:42:16;;;;;;;23.87;14.40;;;4.00;99.90;;;;;;5116566;28;20248;-77
2021/11/21 16:44:42;;;;;;;21.07;15.30;;;3.80;99.90;;;;;;5117246;28;20203;-77
2021/11/21 16:47:08;;;;;;;25.70;16.13;;;3.80;99.90;;;;;;5116917;28;20179;-77
2021/11/21 16:49:35;;;;;;;24.43;15.03;;;3.80;99.90;;;;;;5117049;28;20176;-77
2021/11/21 16:52:04;;;;;;;31.80;15.50;;;3.80;99.90;;;;;;5115685;28;20210;-77
2021/11/21 16:54:30;;;;;;;33.33;14.83;;;3.80;99.90;;;;;;5115716;28;20662;-77
2021/11/21 16:56:56;;;;;;;28.90;15.33;;;3.80;99.90;;;;;;5115669;28;20274;-77
2021/11/21 16:59:22;;;;;;;29.40;16.53;;;3.80;99.90;;;;;;5116970;28;20645;-77
2021/11/21 17:01:48;;;;;;;30.10;16.07;;;3.80;99.90;;;;;;5116571;28;20195;-77
2021/11/21 17:04:14;;;;;;;28.00;15.90;;;3.80;99.90;;;;;;5116762;28;20269;-77
2021/11/21 17:06:39;;;;;;;31.33;14.53;;;3.70;99.90;;;;;;5115169;28;20217;-77
2021/11/21 17:09:07;;;;;;;29.37;15.23;;;3.70;99.90;;;;;;5114945;28;20267;-78
2021/11/21 17:11:34;;;;;;;86.57;17.27;;;3.60;99.90;;;;;;5115081;28;20674;-77
2021/11/21 17:14:00;;;;;;;37.97;13.77;;;3.60;99.90;;;;;;5116591;28;20163;-77
2021/11/21 17:16:26;;;;;;;32.07;13.77;;;3.60;99.90;;;;;;5115464;28;20493;-77
2021/11/21 17:18:52;;;;;;;51.03;14.07;;;3.60;99.90;;;;;;5116533;28;20178;-77
2021/11/21 17:21:22;;;;;;;41.30;15.63;;;3.60;99.90;;;;;;5115072;28;20195;-77
2021/11/21 17:23:47;;;;;;;48.63;14.77;;;3.60;99.90;;;;;;5116416;28;20648;-77
2021/11/21 17:26:13;;;;;;;43.97;14.53;;;3.50;99.90;;;;;;5116629;28;20191;-77
2021/11/21 17:28:39;;;;;;;50.87;15.13;;;3.40;99.90;;;;;;5115093;28;20176;-77
2021/11/21 17:31:05;;;;;;;42.07;13.90;;;3.40;99.90;;;;;;5116385;28;20266;-77
2021/11/21 17:33:31;;;;;;;49.73;13.20;;;3.30;99.90;;;;;;5115025;28;20177;-77
2021/11/21 17:36:00;;;;;;;51.83;15.13;;;3.30;99.90;;;;;;5114912;28;20201;-77
2021/11/21 17:38:30;;;;;;;45.33;14.23;;;3.20;99.90;;;;;;5114985;28;20217;-77
2021/11/21 17:40:56;;;;;;;45.87;15.70;;;3.20;99.90;;;;;;5114634;28;20188;-77
2021/11/21 17:43:22;;;;;;;35.50;14.43;;;3.20;99.90;;;;;;5116069;28;20539;-77
2021/11/21 17:45:48;;;;;;;39.20;14.73;;;3.20;99.90;;;;;;5114581;28;20204;-77
2021/11/21 17:48:20;;;;;;;59.07;13.97;;;3.20;99.90;;;;;;5116214;28;20172;-77
2021/11/21 17:50:49;;;;;;;37.87;13.73;;;3.10;99.90;;;;;;5098411;28;20720;-77
2021/11/21 17:53:15;;;;;;;149.13;34.93;;;3.10;99.90;;;;;;5114845;28;20207;-77
2021/11/21 17:55:41;;;;;;;45.23;16.17;;;3.10;99.90;;;;;;5116141;28;20184;-77
2021/11/21 17:58:07;;;;;;;42.50;13.67;;;3.10;99.90;;;;;;5116170;28;20250;-77
2021/11/21 18:00:32;;;;;;;35.20;13.23;;;3.00;99.90;;;;;;5116360;28;20160;-77
2021/11/21 18:02:58;;;;;;;33.37;13.23;;;3.00;99.90;;;;;;5116252;28;20192;-77
2021/11/21 18:05:24;;;;;;;54.77;12.53;;;2.90;99.90;;;;;;5115933;28;20201;-77
2021/11/21 18:07:49;;;;;;;41.30;15.07;;;2.80;99.90;;;;;;5114793;28;20543;-77
2021/11/21 18:10:19;;;;;;;31.00;14.87;;;2.80;99.90;;;;;;5114880;28;20579;-78
2021/11/21 18:12:47;;;;;;;36.13;18.13;;;2.80;99.90;;;;;;5114847;28;20200;-77
2021/11/21 18:15:13;;;;;;;31.47;14.63;;;2.80;99.90;;;;;;5116276;28;20179;-77
2021/11/21 18:17:39;;;;;;;48.13;15.30;;;2.70;99.90;;;;;;5115770;28;20517;-78
2021/11/21 18:20:05;;;;;;;58.00;15.67;;;2.70;99.90;;;;;;5114842;28;20176;-78
2021/11/21 18:22:32;;;;;;;79.87;16.73;;;2.60;99.90;;;;;;5115530;28;20202;-77
2021/11/21 18:24:59;;;;;;;52.97;17.70;;;2.70;99.90;;;;;;5115265;28;20203;-77
2021/11/21 18:27:25;;;;;;;41.37;16.40;;;2.60;99.90;;;;;;5114209;28;20415;-77
2021/11/21 18:29:56;;;;;;;33.47;16.50;;;2.60;99.90;;;;;;5115529;28;20410;-77
2021/11/21 18:32:22;;;;;;;60.87;18.60;;;2.60;99.90;;;;;;5115051;28;20191;-77
2021/11/21 18:34:49;;;;;;;114.20;20.57;;;2.50;99.90;;;;;;5113930;28;20529;-77
2021/11/21 18:37:15;;;;;;;100.10;17.57;;;2.40;99.90;;;;;;5114896;28;20934;-77
2021/11/21 18:39:43;;;;;;;91.83;17.37;;;2.20;99.90;;;;;;5114854;28;20406;-77
2021/11/21 18:42:09;;;;;;;113.10;15.87;;;2.10;99.90;;;;;;5114584;28;20524;-77
2021/11/21 18:44:40;;;;;;;142.17;17.20;;;2.10;99.90;;;;;;5114727;28;20417;-77
2021/11/21 18:47:09;;;;;;;85.00;16.83;;;2.00;99.90;;;;;;5113459;28;20413;-77
2021/11/21 18:49:34;;;;;;;53.73;15.97;;;2.10;99.90;;;;;;5113417;28;20413;-76
2021/11/21 18:52:03;;;;;;;59.60;15.67;;;2.00;99.90;;;;;;5113150;28;20478;-77
2021/11/21 18:54:29;;;;;;;75.33;16.40;;;2.10;99.90;;;;;;5113338;28;20180;-77
2021/11/21 18:56:54;;;;;;;82.23;15.03;;;2.00;99.90;;;;;;5113173;28;20467;-76
2021/11/21 18:59:22;;;;;;;97.27;14.67;;;1.90;99.90;;;;;;5113217;28;20175;-77
2021/11/21 19:01:50;;;;;;;68.40;15.47;;;1.90;99.90;;;;;;5113224;28;20200;-77
2021/11/21 19:04:17;;;;;;;62.93;16.30;;;1.80;99.90;;;;;;5113272;28;20478;-76
2021/11/21 19:06:46;;;;;;;103.33;15.67;;;1.90;99.90;;;;;;5114259;28;20460;-77
2021/11/21 19:09:11;;;;;;;90.03;19.60;;;1.90;99.90;;;;;;5114644;28;21024;-77
2021/11/21 19:11:37;;;;;;;112.33;17.07;;;1.80;99.90;;;;;;5114394;28;20467;-77
2021/11/21 19:14:03;;;;;;;157.03;17.27;;;1.80;99.90;;;;;;5115379;28;20172;-77
2021/11/21 19:16:29;;;;;;;77.67;15.80;;;1.80;99.90;;;;;;5115622;28;20167;-77
2021/11/21 19:18:56;;;;;;;82.57;17.00;;;1.80;99.90;;;;;;5115410;28;20416;-77
2021/11/21 19:21:22;;;;;;;75.03;16.40;;;1.80;99.90;;;;;;5113748;28;20203;-77
2021/11/21 19:23:48;;;;;;;87.20;14.97;;;1.90;99.90;;;;;;5113964;28;20417;-77
2021/11/21 19:26:14;;;;;;;82.33;15.23;;;1.90;99.90;;;;;;5114782;28;20457;-77
2021/11/21 19:28:40;;;;;;;112.83;17.80;;;1.80;99.90;;;;;;5113836;28;20266;-77
2021/11/21 19:31:06;;;;;;;67.37;15.03;;;1.80;99.90;;;;;;5116239;28;20203;-77
2021/11/21 19:33:32;;;;;;;156.20;22.13;;;1.80;99.90;;;;;;5114314;28;20444;-77
2021/11/21 19:35:57;;;;;;;114.67;16.67;;;1.90;99.90;;;;;;5114511;28;20682;-77
2021/11/21 19:38:29;;;;;;;136.87;23.63;;;1.80;99.90;;;;;;5113124;28;20224;-77
2021/11/21 19:40:56;;;;;;;74.37;18.20;;;1.70;99.90;;;;;;5114556;28;20171;-77
2021/11/21 19:43:23;;;;;;;149.37;17.17;;;1.80;99.90;;;;;;5113026;28;20448;-77
2021/11/21 19:45:49;;;;;;;102.67;16.07;;;1.70;99.90;;;;;;5114515;28;20452;-77
2021/11/21 19:48:16;;;;;;;64.40;14.20;;;1.70;99.90;;;;;;5113128;28;20405;-77
2021/11/21 19:50:42;;;;;;;109.27;20.80;;;1.70;99.90;;;;;;5112941;28;20462;-77
2021/11/21 19:53:08;;;;;;;112.50;18.60;;;1.60;99.90;;;;;;5114326;28;20429;-77
2021/11/21 19:55:35;;;;;;;65.33;17.20;;;1.60;99.90;;;;;;5114142;28;20176;-77
2021/11/21 19:58:04;;;;;;;82.13;16.67;;;1.70;99.90;;;;;;5114763;28;20502;-77
2021/11/21 20:00:31;;;;;;;119.67;20.47;;;1.60;99.90;;;;;;5112856;28;20816;-77
2021/11/21 20:02:58;;;;;;;76.00;15.80;;;1.60;99.90;;;;;;5114123;28;20430;-77
2021/11/21 20:05:24;;;;;;;70.93;14.33;;;1.60;99.90;;;;;;5113240;28;20460;-77
2021/11/21 20:07:51;;;;;;;124.83;16.00;;;1.60;99.90;;;;;;5114805;28;20401;-77
2021/11/21 20:10:24;;;;;;;64.00;14.97;;;1.70;99.90;;;;;;5113191;28;20417;-77
2021/11/21 20:12:55;;;;;;;42.67;15.10;;;1.70;99.90;;;;;;5113038;28;20433;-78
2021/11/21 20:15:22;;;;;;;104.83;15.60;;;1.70;99.90;;;;;;5115252;28;20396;-78
2021/11/21 20:17:48;;;;;;;75.97;15.70;;;1.70;99.90;;;;;;5113815;28;20474;-77
2021/11/21 20:20:14;;;;;;;73.90;15.03;;;1.60;99.90;;;;;;5112882;28;20421;-77
2021/11/21 20:22:40;;;;;;;112.63;16.47;;;1.60;99.90;;;;;;5114009;28;20203;-78